createdAt,value
2018-01-25T04:32:34.963Z,10.30
2018-01-25T04:35:08.995Z,10.30
2018-01-25T04:37:42.761Z,10.30
2018-01-25T04:40:16.529Z,10.30
2018-01-25T04:42:50.179Z,10.40
2018-01-25T04:45:23.995Z,10.40
2018-01-25T04:47:57.837Z,10.50
2018-01-25T04:50:31.851Z,10.50
2018-01-25T04:53:06.419Z,10.60
2018-01-25T04:55:41.188Z,10.60
2018-01-25T04:58:34.809Z,10.60
2018-01-25T05:01:09.364Z,10.60
2018-01-25T05:03:43.167Z,10.60
2018-01-25T05:06:17.887Z,10.70
2018-01-25T05:08:51.545Z,10.60
2018-01-25T05:11:25.384Z,10.70
2018-01-25T05:13:59.105Z,10.70
2018-01-25T05:16:35.701Z,10.80
2018-01-25T05:19:10.292Z,10.80
2018-01-25T05:21:44.133Z,10.80
2018-01-25T05:24:17.872Z,10.80
2018-01-25T05:26:52.389Z,10.80
2018-01-25T05:29:26.119Z,10.80
2018-01-25T05:32:00.744Z,10.90
2018-01-25T05:34:35.334Z,10.90
2018-01-25T05:37:09.790Z,10.90
2018-01-25T05:39:44.227Z,10.90
2018-01-25T05:42:18.016Z,10.90
2018-01-25T05:44:52.585Z,10.90
2018-01-25T05:47:26.311Z,10.90
2018-01-25T05:50:00.978Z,11.00
2018-01-25T05:52:34.663Z,10.90
2018-01-25T05:55:08.983Z,11.00
2018-01-25T05:57:42.688Z,11.00
2018-01-25T06:00:16.458Z,11.10
2018-01-25T06:02:50.215Z,11.10
2018-01-25T06:05:25.774Z,11.10
2018-01-25T06:07:59.453Z,11.10
2018-01-25T06:10:33.335Z,11.00
2018-01-25T06:13:07.154Z,11.00
2018-01-25T06:15:41.827Z,11.10
2018-01-25T06:18:16.307Z,11.10
2018-01-25T06:20:50.172Z,11.10
2018-01-25T06:23:23.946Z,11.10
2018-01-25T06:25:57.649Z,11.10
2018-01-25T06:28:33.457Z,11.00
2018-01-25T06:31:07.242Z,11.00
2018-01-25T06:33:41.995Z,11.00
2018-01-25T06:36:16.662Z,11.00
2018-01-25T06:38:50.636Z,10.90
2018-01-25T06:41:24.605Z,11.00
2018-01-25T06:43:59.296Z,11.00
2018-01-25T06:46:33.268Z,10.90
2018-01-25T06:49:07.139Z,10.90
2018-01-25T06:51:41.192Z,10.80
2018-01-25T06:54:15.735Z,10.80
2018-01-25T06:56:49.520Z,10.70
2018-01-25T06:59:24.208Z,10.80
2018-01-25T07:01:57.959Z,10.70
2018-01-25T07:04:31.694Z,10.80
2018-01-25T07:07:05.512Z,10.80
2018-01-25T07:09:39.327Z,10.80
2018-01-25T07:12:13.757Z,10.80
2018-01-25T07:14:47.888Z,10.70
2018-01-25T07:17:21.803Z,10.50
2018-01-25T07:19:55.624Z,10.40
2018-01-25T07:22:32.851Z,10.20
2018-01-25T07:25:06.823Z,10.10
2018-01-25T07:27:40.650Z,10.00
2018-01-25T07:30:14.555Z,9.90
2018-01-25T07:32:48.355Z,9.90
2018-01-25T07:35:22.003Z,9.90
2018-01-25T07:37:56.511Z,9.80
2018-01-25T07:40:30.331Z,9.80
2018-01-25T07:43:03.996Z,9.80
2018-01-25T07:45:37.919Z,9.70
2018-01-25T07:48:11.656Z,9.70
2018-01-25T07:50:45.512Z,9.60
2018-01-25T07:53:19.285Z,9.50
2018-01-25T07:55:54.140Z,9.50
2018-01-25T07:58:28.052Z,9.60
2018-01-25T08:01:02.918Z,9.60
2018-01-25T08:03:36.708Z,9.60
2018-01-25T08:06:11.336Z,9.70
2018-01-25T08:08:45.302Z,9.70
2018-01-25T08:11:19.947Z,9.70
2018-01-25T08:13:53.630Z,9.70
2018-01-25T08:16:33.439Z,9.70
2018-01-25T08:19:07.340Z,9.60
2018-01-25T08:21:41.163Z,9.70
2018-01-25T08:24:15.012Z,9.70
2018-01-25T08:26:48.906Z,9.70
2018-01-25T08:29:23.365Z,9.80
2018-01-25T08:31:57.910Z,9.80
2018-01-25T08:34:31.758Z,9.80
2018-01-25T08:37:05.512Z,9.90
2018-01-25T08:39:40.055Z,9.90
2018-01-25T08:42:13.807Z,9.90
2018-01-25T08:44:48.451Z,10.00
2018-01-25T08:47:22.325Z,10.00
2018-01-25T08:49:56.767Z,10.20
2018-01-25T08:52:30.733Z,10.10
2018-01-25T08:55:04.467Z,10.20
2018-01-25T08:57:39.236Z,10.30
2018-01-25T09:00:13.051Z,10.30
2018-01-25T09:02:47.193Z,10.40
2018-01-25T09:05:21.090Z,10.40
2018-01-25T09:07:54.695Z,10.50
2018-01-25T09:10:29.356Z,10.60
2018-01-25T09:13:03.008Z,10.70
2018-01-25T09:15:37.627Z,10.80
2018-01-25T09:18:11.709Z,10.80
2018-01-25T09:20:45.420Z,10.90
2018-01-25T09:23:19.262Z,10.90
2018-01-25T09:25:53.036Z,11.10
2018-01-25T09:28:28.382Z,11.20
2018-01-25T09:31:02.163Z,11.20
2018-01-25T09:33:36.347Z,11.30
2018-01-25T09:36:10.087Z,11.30
2018-01-25T09:38:44.741Z,11.40
2018-01-25T09:41:19.253Z,11.40
2018-01-25T09:43:53.449Z,11.40
2018-01-25T09:46:27.446Z,11.40
2018-01-25T09:49:01.828Z,11.40
2018-01-25T09:51:35.616Z,11.40
2018-01-25T09:54:09.852Z,11.50
2018-01-25T09:56:43.659Z,11.60
2018-01-25T09:59:18.257Z,11.70
2018-01-25T10:01:51.944Z,12.00
2018-01-25T10:04:26.628Z,12.40
2018-01-25T10:07:00.450Z,12.40
2018-01-25T10:09:34.296Z,12.40
2018-01-25T10:12:08.224Z,12.30
2018-01-25T10:14:42.120Z,12.40
2018-01-25T10:17:16.551Z,12.50
2018-01-25T10:19:50.401Z,12.50
2018-01-25T10:22:25.583Z,12.50
2018-01-25T10:24:59.341Z,12.50
2018-01-25T10:27:33.151Z,12.60
2018-01-25T10:30:06.947Z,12.60
2018-01-25T10:32:41.515Z,12.60
2018-01-25T10:35:15.396Z,12.60
2018-01-25T10:37:49.123Z,12.60
2018-01-25T10:40:23.271Z,12.50
2018-01-25T10:42:57.184Z,12.50
2018-01-25T10:45:30.995Z,12.50
2018-01-25T10:48:04.691Z,12.40
2018-01-25T10:50:38.539Z,12.50
2018-01-25T10:53:13.083Z,12.50
2018-01-25T10:55:46.969Z,12.50
2018-01-25T10:58:21.414Z,12.60
2018-01-25T11:03:54.054Z,12.70
2018-01-25T11:06:28.626Z,12.70
2018-01-25T11:09:03.101Z,12.70
2018-01-25T11:11:36.840Z,12.70
2018-01-25T11:14:10.620Z,12.60
2018-01-25T11:16:44.420Z,12.80
2018-01-25T11:19:18.791Z,12.80
2018-01-25T11:21:52.513Z,12.90
2018-01-25T11:24:26.400Z,12.90
2018-01-25T11:27:00.945Z,13.00
2018-01-25T11:29:35.687Z,13.00
2018-01-25T11:32:10.912Z,13.20
2018-01-25T11:34:47.020Z,13.20
2018-01-25T11:37:34.917Z,13.20
2018-01-25T11:40:09.511Z,13.20
2018-01-25T11:42:44.071Z,13.20
2018-01-25T11:45:17.815Z,13.20
2018-01-25T11:47:51.615Z,13.30
2018-01-25T11:50:25.404Z,13.30
2018-01-25T11:53:00.426Z,13.30
2018-01-25T11:55:34.299Z,13.40
2018-01-25T11:58:09.693Z,13.40
2018-01-25T12:00:44.211Z,13.40
2018-01-25T12:03:18.834Z,13.50
2018-01-25T12:05:53.988Z,13.40
2018-01-25T12:08:33.120Z,13.40
2018-01-25T12:11:13.938Z,13.30
2018-01-25T12:13:59.981Z,13.40
2018-01-25T12:16:43.569Z,13.30
2018-01-25T12:19:24.794Z,13.40
2018-01-25T12:22:02.286Z,13.40
2018-01-25T12:24:38.482Z,13.40
2018-01-25T12:27:20.645Z,13.40
2018-01-25T12:29:56.834Z,13.30
2018-01-25T12:32:36.345Z,13.40
2018-01-25T12:35:18.250Z,13.50
2018-01-25T12:37:55.628Z,13.40
2018-01-25T12:43:15.934Z,13.30
2018-01-25T12:45:52.515Z,13.30
2018-01-25T12:48:27.031Z,13.20
2018-01-25T12:51:00.800Z,13.20
2018-01-25T12:53:34.616Z,13.20
2018-01-25T12:56:08.378Z,13.10
2018-01-25T12:58:42.932Z,13.20
2018-01-25T13:01:21.365Z,13.20
2018-01-25T13:03:55.139Z,13.20
2018-01-25T13:06:28.919Z,13.20
2018-01-25T13:09:03.504Z,13.10
2018-01-25T13:11:37.245Z,13.10
2018-01-25T13:14:13.749Z,13.10
2018-01-25T13:16:48.584Z,13.10
2018-01-25T13:19:22.343Z,13.10
2018-01-25T13:21:56.852Z,13.20
2018-01-25T13:24:32.437Z,13.20
2018-01-25T13:27:06.920Z,13.10
2018-01-25T13:29:40.563Z,13.00
2018-01-25T13:32:19.359Z,13.00
2018-01-25T13:34:53.048Z,13.00
2018-01-25T13:37:26.887Z,13.00
2018-01-25T13:40:00.680Z,13.00
2018-01-25T13:42:34.472Z,13.00
2018-01-25T13:45:08.242Z,13.00
2018-01-25T13:47:42.030Z,12.90
2018-01-25T13:50:15.951Z,13.10
2018-01-25T13:52:50.645Z,13.20
2018-01-25T13:55:25.183Z,13.30
2018-01-25T13:57:59.023Z,13.20
2018-01-25T14:00:34.127Z,13.20
2018-01-25T14:03:08.700Z,13.20
2018-01-25T14:05:42.376Z,13.20
2018-01-25T14:08:16.186Z,13.20
2018-01-25T14:10:49.985Z,13.30
2018-01-25T14:13:24.060Z,13.20
2018-01-25T14:15:57.941Z,13.10
2018-01-25T14:18:31.587Z,13.10
2018-01-25T14:21:05.421Z,13.10
2018-01-25T14:23:39.973Z,13.20
2018-01-25T14:26:14.483Z,13.10
2018-01-25T14:28:48.198Z,13.10
2018-01-25T14:31:21.904Z,13.10
2018-01-25T14:33:56.551Z,13.20
2018-01-25T14:36:30.971Z,13.20
2018-01-25T14:39:04.700Z,13.20
2018-01-25T14:41:38.522Z,13.20
2018-01-25T14:44:12.384Z,13.20
2018-01-25T14:46:46.184Z,13.10
2018-01-25T14:49:20.802Z,13.20
2018-01-25T14:51:54.599Z,13.20
2018-01-25T14:54:29.231Z,13.20
2018-01-25T14:57:03.855Z,13.20
2018-01-25T14:59:38.396Z,13.30
2018-01-25T15:02:13.904Z,13.40
2018-01-25T15:04:47.636Z,13.30
2018-01-25T15:07:21.405Z,13.40
2018-01-25T15:09:55.100Z,13.30
2018-01-25T15:12:29.658Z,13.30
2018-01-25T15:15:04.365Z,13.30
2018-01-25T15:17:38.111Z,13.30
2018-01-25T15:20:14.048Z,13.20
2018-01-25T15:22:48.567Z,13.10
2018-01-25T15:25:28.076Z,13.10
2018-01-25T15:28:01.803Z,13.10
2018-01-25T15:30:35.619Z,13.00
2018-01-25T15:33:09.444Z,13.00
2018-01-25T15:35:46.240Z,13.00
2018-01-25T15:38:20.012Z,12.90
2018-01-25T15:40:54.519Z,12.70
2018-01-25T15:43:28.301Z,12.70
2018-01-25T15:46:03.971Z,12.50
2018-01-25T15:48:37.885Z,12.40
2018-01-25T15:51:12.535Z,12.10
2018-01-25T15:53:47.003Z,12.10
2018-01-25T15:56:20.853Z,12.00
2018-01-25T15:58:54.699Z,11.90
2018-01-25T16:01:28.459Z,11.80
2018-01-25T16:04:02.630Z,11.70
2018-01-25T16:06:37.803Z,11.50
2018-01-25T16:09:11.532Z,11.50
2018-01-25T16:11:45.210Z,11.50
2018-01-25T16:14:18.932Z,11.40
2018-01-25T16:16:52.677Z,11.30
2018-01-25T16:19:27.290Z,11.20
2018-01-25T16:22:01.873Z,11.30
2018-01-25T16:24:35.713Z,11.20
2018-01-25T16:27:10.276Z,11.20
2018-01-25T16:29:44.183Z,11.20
2018-01-25T16:32:19.011Z,11.30
2018-01-25T16:34:53.858Z,11.20
2018-01-25T16:37:27.701Z,11.20
2018-01-25T16:40:01.589Z,11.20
2018-01-25T16:42:35.368Z,11.20
2018-01-25T16:45:09.247Z,11.30
2018-01-25T16:47:43.702Z,11.30
2018-01-25T16:50:17.580Z,11.30
2018-01-25T16:52:54.822Z,11.30
2018-01-25T16:55:28.520Z,11.30
2018-01-25T16:58:03.118Z,11.20
2018-01-25T17:00:36.908Z,11.20
2018-01-25T17:03:10.772Z,11.10
2018-01-25T17:05:45.461Z,11.00
2018-01-25T17:08:19.205Z,10.90
2018-01-25T17:10:53.624Z,10.80
2018-01-25T17:13:27.612Z,10.80
2018-01-25T17:16:02.040Z,10.70
2018-01-25T17:18:35.750Z,10.70
2018-01-25T17:21:09.593Z,10.70
2018-01-25T17:23:43.484Z,10.70
2018-01-25T17:26:17.320Z,10.70
2018-01-25T17:28:51.080Z,10.60
2018-01-25T17:31:25.651Z,10.70
2018-01-25T17:33:59.628Z,10.60
2018-01-25T17:36:33.311Z,10.80
2018-01-25T17:39:07.078Z,11.00
2018-01-25T17:41:40.887Z,11.20
2018-01-25T17:44:14.651Z,11.30
2018-01-25T17:46:48.550Z,11.30
2018-01-25T17:49:23.319Z,11.30
2018-01-25T17:51:57.634Z,11.20
2018-01-25T17:54:31.854Z,11.20
2018-01-25T17:57:05.620Z,11.20
2018-01-25T17:59:39.475Z,11.20
2018-01-25T18:02:13.244Z,11.20
2018-01-25T18:04:47.828Z,11.20
2018-01-25T18:07:21.583Z,11.20
2018-01-25T18:09:56.383Z,11.10
2018-01-25T18:12:31.297Z,11.10
2018-01-25T18:15:05.051Z,11.10
2018-01-25T18:17:38.783Z,11.10
2018-01-25T18:20:12.903Z,11.10
2018-01-25T18:22:46.807Z,11.00
2018-01-25T18:25:20.544Z,10.90
2018-01-25T18:27:54.246Z,10.90
2018-01-25T18:30:28.019Z,10.90
2018-01-25T18:33:01.788Z,10.80
2018-01-25T18:35:35.590Z,10.70
2018-01-25T18:38:09.427Z,10.70
2018-01-25T18:40:43.999Z,10.80
2018-01-25T18:43:17.827Z,10.70
2018-01-25T18:45:51.602Z,10.80
2018-01-25T18:48:25.410Z,10.80
2018-01-25T18:50:59.135Z,10.80
2018-01-25T18:53:33.692Z,10.90
2018-01-25T18:56:07.472Z,10.90
2018-01-25T18:58:41.977Z,10.90
2018-01-25T19:01:15.688Z,10.90
2018-01-25T19:03:50.238Z,10.90
2018-01-25T19:06:24.035Z,10.90
2018-01-25T19:08:58.531Z,10.90
2018-01-25T19:11:32.470Z,10.80
2018-01-25T19:14:06.220Z,10.80
2018-01-25T19:16:40.139Z,10.80
2018-01-25T19:19:14.603Z,10.80
2018-01-25T19:21:52.671Z,10.70
2018-01-25T19:24:26.518Z,10.70
2018-01-25T19:27:00.420Z,10.60
2018-01-25T19:29:34.182Z,10.60
2018-01-25T19:32:08.127Z,10.40
2018-01-25T19:34:41.918Z,10.40
2018-01-25T19:37:15.840Z,10.30
2018-01-25T19:39:50.387Z,10.30
2018-01-25T19:42:24.067Z,10.30
2018-01-25T19:44:58.926Z,10.20
2018-01-25T19:47:32.828Z,10.10
2018-01-25T19:50:07.330Z,10.10
2018-01-25T19:52:41.183Z,10.20
2018-01-25T19:55:14.977Z,10.20
2018-01-25T19:57:48.769Z,10.20
2018-01-25T20:00:22.787Z,10.20
2018-01-25T20:02:56.533Z,10.20
2018-01-25T20:05:30.352Z,10.30
2018-01-25T20:08:04.938Z,10.20
2018-01-25T20:10:39.563Z,10.20
2018-01-25T20:13:13.494Z,10.20
2018-01-25T20:15:47.395Z,10.10
2018-01-25T20:18:22.480Z,10.10
2018-01-25T20:20:56.362Z,10.00
2018-01-25T20:23:30.118Z,10.10
2018-01-25T20:26:04.028Z,10.00
2018-01-25T20:28:37.812Z,10.10
2018-01-25T20:31:12.376Z,9.90
2018-01-25T20:33:46.220Z,9.90
2018-01-25T20:36:20.227Z,9.90
2018-01-25T20:38:53.958Z,9.90
2018-01-25T20:41:27.811Z,9.90
2018-01-25T20:44:01.406Z,9.80
2018-01-25T20:46:35.125Z,9.80
2018-01-25T20:49:09.683Z,9.90
2018-01-25T20:51:43.582Z,9.90
2018-01-25T20:54:17.429Z,9.90
2018-01-25T20:56:51.303Z,9.90
2018-01-25T20:59:25.272Z,9.90
2018-01-25T21:01:59.758Z,10.10
2018-01-25T21:04:33.576Z,10.00
2018-01-25T21:07:07.467Z,10.10
2018-01-25T21:09:41.628Z,10.10
2018-01-25T21:12:15.499Z,10.20
2018-01-25T21:14:49.455Z,10.20
2018-01-25T21:17:23.311Z,10.30
2018-01-25T21:19:57.114Z,10.30
2018-01-25T21:22:30.943Z,10.30
2018-01-25T21:25:04.744Z,10.20
2018-01-25T21:27:38.466Z,10.20
2018-01-25T21:30:12.439Z,10.20
2018-01-25T21:32:46.150Z,10.20
2018-01-25T21:35:19.916Z,10.20
2018-01-25T21:37:54.394Z,10.10
2018-01-25T21:40:28.327Z,10.00
2018-01-25T21:43:02.161Z,10.10
2018-01-25T21:45:36.735Z,10.00
2018-01-25T21:48:10.657Z,10.00
2018-01-25T21:50:44.480Z,10.10
2018-01-25T21:53:18.254Z,10.00
2018-01-25T21:55:52.019Z,10.00
2018-01-25T21:58:25.779Z,10.00
